createdAt,value
2019-05-16T00:01:00.843Z,1.17
2019-05-16T00:03:30.908Z,0.50
2019-05-16T00:06:00.939Z,0.90
2019-05-16T00:08:31.953Z,0.70
2019-05-16T00:11:01.972Z,1.13
2019-05-16T00:13:32.008Z,1.00
2019-05-16T00:16:02.082Z,0.80
2019-05-16T00:18:32.233Z,0.50
2019-05-16T00:21:02.388Z,0.60
2019-05-16T00:23:32.430Z,1.27
2019-05-16T00:26:02.485Z,0.73
2019-05-16T00:28:32.560Z,0.63
2019-05-16T00:31:02.630Z,2.03
2019-05-16T00:33:32.717Z,1.07
2019-05-16T00:36:05.917Z,0.87
2019-05-16T00:38:34.568Z,0.33
2019-05-16T00:41:04.625Z,0.77
2019-05-16T00:43:34.648Z,0.30
2019-05-16T00:46:04.716Z,0.50
2019-05-16T00:48:34.746Z,0.50
2019-05-16T00:51:04.900Z,0.70
2019-05-16T00:53:34.915Z,0.60
2019-05-16T00:56:04.967Z,0.53
2019-05-16T00:58:35.018Z,0.50
2019-05-16T01:01:05.064Z,0.70
2019-05-16T01:03:35.181Z,0.83
2019-05-16T01:06:15.788Z,1.20
2019-05-16T01:08:38.517Z,0.63
2019-05-16T01:11:08.670Z,0.43
2019-05-16T01:13:38.734Z,0.30
2019-05-16T01:16:08.830Z,0.50
2019-05-16T01:18:38.965Z,0.70
2019-05-16T01:21:09.002Z,0.77
2019-05-16T01:23:39.038Z,0.57
2019-05-16T01:26:09.210Z,0.57
2019-05-16T01:28:39.225Z,0.77
2019-05-16T01:31:09.292Z,0.30
2019-05-16T01:33:39.324Z,0.40
2019-05-16T01:36:09.385Z,1.23
2019-05-16T01:38:39.401Z,0.70
2019-05-16T01:41:09.428Z,0.40
2019-05-16T01:43:39.458Z,0.50
2019-05-16T01:46:09.469Z,0.30
2019-05-16T01:48:39.514Z,0.60
2019-05-16T01:51:09.577Z,0.17
2019-05-16T01:53:39.620Z,0.53
2019-05-16T01:56:09.668Z,0.87
2019-05-16T01:58:39.716Z,0.90
2019-05-16T02:01:13.209Z,0.40
2019-05-16T02:03:41.494Z,0.63
2019-05-16T02:06:11.571Z,0.70
2019-05-16T02:08:41.591Z,1.27
2019-05-16T02:11:11.657Z,1.23
2019-05-16T02:13:41.684Z,0.43
2019-05-16T02:16:11.732Z,1.07
2019-05-16T02:18:41.759Z,0.40
2019-05-16T02:21:11.819Z,1.10
2019-05-16T02:23:41.850Z,0.73
2019-05-16T02:26:11.893Z,0.73
2019-05-16T02:28:43.764Z,0.90
2019-05-16T02:31:15.396Z,0.83
2019-05-16T02:33:45.494Z,0.60
2019-05-16T02:36:15.534Z,0.43
2019-05-16T02:38:45.547Z,0.60
2019-05-16T02:41:15.600Z,0.90
2019-05-16T02:43:46.580Z,0.43
2019-05-16T02:46:16.639Z,0.43
2019-05-16T02:48:46.664Z,0.90
2019-05-16T02:51:16.715Z,0.50
2019-05-16T02:53:46.768Z,1.40
2019-05-16T02:56:16.824Z,1.10
2019-05-16T02:58:46.859Z,0.80
2019-05-16T03:01:16.901Z,0.97
2019-05-16T03:03:46.976Z,1.73
2019-05-16T03:06:17.051Z,1.60
2019-05-16T03:08:47.102Z,0.47
2019-05-16T03:11:20.748Z,0.93
2019-05-16T03:13:51.330Z,1.27
2019-05-16T03:16:22.210Z,0.50
2019-05-16T03:18:52.588Z,1.03
2019-05-16T03:21:23.761Z,1.00
2019-05-16T03:23:54.113Z,0.67
2019-05-16T03:26:24.147Z,1.33
2019-05-16T03:28:54.177Z,0.80
2019-05-16T03:31:25.398Z,0.73
2019-05-16T03:33:59.218Z,1.07
2019-05-16T03:36:33.958Z,0.50
2019-05-16T03:39:01.274Z,0.93
2019-05-16T03:41:32.814Z,0.80
2019-05-16T03:44:02.847Z,1.27
2019-05-16T03:46:32.893Z,1.73
2019-05-16T03:49:02.937Z,1.13
2019-05-16T03:51:33.028Z,1.10
2019-05-16T03:54:03.971Z,0.80
2019-05-16T03:56:34.026Z,1.60
2019-05-16T03:59:04.051Z,0.80
2019-05-16T04:01:34.297Z,1.23
2019-05-16T04:04:04.349Z,1.00
2019-05-16T04:06:34.421Z,1.80
2019-05-16T04:09:05.956Z,0.83
2019-05-16T04:11:36.038Z,1.97
2019-05-16T04:14:06.250Z,1.13
2019-05-16T04:16:37.289Z,1.57
2019-05-16T04:19:07.321Z,0.67
2019-05-16T04:21:37.350Z,0.90
2019-05-16T04:24:07.424Z,1.07
2019-05-16T04:26:37.486Z,0.63
2019-05-16T04:29:07.542Z,1.43
2019-05-16T04:31:41.320Z,1.03
2019-05-16T04:34:11.676Z,1.47
2019-05-16T04:36:43.112Z,0.83
2019-05-16T04:39:13.161Z,0.80
2019-05-16T04:41:43.193Z,1.67
2019-05-16T04:44:13.227Z,1.43
2019-05-16T04:46:43.282Z,0.70
2019-05-16T04:49:13.301Z,0.97
2019-05-16T04:51:43.329Z,0.87
2019-05-16T04:54:13.364Z,1.13
2019-05-16T04:56:44.377Z,0.80
2019-05-16T04:59:16.528Z,1.07
2019-05-16T05:01:46.220Z,0.80
2019-05-16T05:04:16.247Z,1.60
2019-05-16T05:06:47.129Z,1.03
2019-05-16T05:09:17.098Z,0.70
2019-05-16T05:11:47.154Z,1.00
2019-05-16T05:14:17.172Z,0.53
2019-05-16T05:16:47.210Z,0.60
2019-05-16T05:19:20.032Z,1.40
2019-05-16T05:21:51.461Z,0.83
2019-05-16T05:24:20.710Z,1.30
2019-05-16T05:26:50.825Z,1.07
2019-05-16T05:29:20.841Z,1.40
2019-05-16T05:31:55.171Z,0.70
2019-05-16T05:34:22.651Z,1.20
2019-05-16T05:36:52.710Z,0.60
2019-05-16T05:39:22.887Z,1.07
2019-05-16T05:41:52.932Z,0.50
2019-05-16T05:44:22.966Z,0.70
2019-05-16T05:46:53.025Z,0.90
2019-05-16T05:49:23.074Z,2.07
2019-05-16T05:51:53.088Z,1.40
2019-05-16T05:54:23.170Z,1.60
2019-05-16T05:56:53.224Z,1.17
2019-05-16T05:59:23.255Z,1.70
2019-05-16T06:01:53.375Z,1.03
2019-05-16T06:04:23.380Z,1.73
2019-05-16T06:06:54.311Z,1.07
2019-05-16T06:09:29.111Z,1.27
2019-05-16T06:11:56.101Z,1.43
2019-05-16T06:14:26.143Z,1.20
2019-05-16T06:16:56.172Z,1.23
2019-05-16T06:19:26.200Z,1.40
2019-05-16T06:21:56.234Z,1.40
2019-05-16T06:24:26.282Z,1.20
2019-05-16T06:26:56.320Z,0.80
2019-05-16T06:29:26.385Z,1.23
2019-05-16T06:31:56.418Z,0.80
2019-05-16T06:34:26.509Z,1.07
2019-05-16T06:36:56.524Z,0.30
2019-05-16T06:39:39.198Z,1.07
2019-05-16T06:42:00.474Z,0.70
2019-05-16T06:44:30.873Z,0.50
2019-05-16T06:47:15.755Z,1.23
2019-05-16T06:49:32.791Z,1.20
2019-05-16T06:52:02.821Z,0.60
2019-05-16T06:54:32.984Z,1.30
2019-05-16T06:57:03.045Z,0.30
2019-05-16T06:59:33.094Z,1.00
2019-05-16T07:02:03.147Z,0.87
2019-05-16T07:04:33.206Z,0.70
2019-05-16T07:07:03.423Z,1.53
2019-05-16T07:09:33.465Z,0.93
2019-05-16T07:12:03.489Z,0.90
2019-05-16T07:14:33.554Z,1.17
2019-05-16T07:17:03.603Z,0.87
2019-05-16T07:19:35.456Z,1.37
2019-05-16T07:22:05.435Z,0.63
2019-05-16T07:24:35.494Z,1.43
2019-05-16T07:27:08.658Z,1.20
2019-05-16T07:29:37.277Z,1.07
2019-05-16T07:32:07.305Z,1.30
2019-05-16T07:34:37.365Z,1.20
2019-05-16T07:37:07.400Z,1.40
2019-05-16T07:39:39.281Z,1.13
2019-05-16T07:42:11.000Z,1.03
2019-05-16T07:44:40.947Z,1.43
2019-05-16T07:47:11.298Z,0.67
2019-05-16T07:49:41.370Z,0.73
2019-05-16T07:52:11.401Z,1.20
2019-05-16T07:54:41.436Z,1.00
2019-05-16T07:57:19.530Z,1.37
2019-05-16T07:59:43.209Z,1.47
2019-05-16T08:02:13.257Z,1.30
2019-05-16T08:04:43.273Z,0.83
2019-05-16T08:07:14.441Z,1.73
2019-05-16T08:09:44.458Z,1.03
2019-05-16T08:12:14.519Z,2.30
2019-05-16T08:14:44.528Z,0.70
2019-05-16T08:17:14.572Z,0.80
2019-05-16T08:19:44.664Z,1.67
2019-05-16T08:22:14.670Z,1.50
2019-05-16T08:24:45.780Z,1.23
2019-05-16T08:27:15.790Z,1.20
2019-05-16T08:29:45.877Z,0.93
2019-05-16T08:32:15.984Z,1.90
2019-05-16T08:34:46.027Z,1.77
2019-05-16T08:37:34.046Z,1.63
2019-05-16T08:39:50.768Z,1.27
2019-05-16T08:42:20.796Z,0.87
2019-05-16T08:44:52.085Z,2.27
2019-05-16T08:47:22.114Z,1.93
2019-05-16T08:49:52.457Z,2.13
2019-05-16T08:52:22.676Z,2.13
2019-05-16T08:54:52.692Z,1.83
2019-05-16T08:57:27.726Z,1.50
2019-05-16T08:59:54.497Z,1.50
2019-05-16T09:02:32.381Z,1.67
2019-05-16T09:04:57.231Z,1.07
2019-05-16T09:07:27.306Z,1.10
2019-05-16T09:10:00.219Z,1.40
2019-05-16T09:12:29.180Z,1.67
2019-05-16T09:14:59.585Z,1.33
2019-05-16T09:17:29.649Z,1.73
2019-05-16T09:19:59.698Z,1.67
2019-05-16T09:22:29.725Z,1.90
2019-05-16T09:24:59.762Z,1.43
2019-05-16T09:27:30.825Z,1.37
2019-05-16T09:30:00.849Z,2.10
2019-05-16T09:32:30.913Z,1.80
2019-05-16T09:35:00.951Z,1.77
2019-05-16T09:37:30.988Z,1.53
2019-05-16T09:40:01.012Z,1.77
2019-05-16T09:42:31.061Z,1.63
2019-05-16T09:45:01.115Z,1.57
2019-05-16T09:47:31.204Z,1.43
2019-05-16T09:50:01.309Z,1.10
2019-05-16T09:52:31.434Z,1.47
2019-05-16T09:55:01.662Z,1.03
2019-05-16T09:57:31.750Z,0.80
2019-05-16T10:00:01.848Z,1.73
2019-05-16T10:02:32.450Z,1.40
2019-05-16T10:05:02.672Z,2.47
2019-05-16T10:07:33.831Z,1.12
2019-05-16T10:10:06.377Z,1.62
2019-05-16T10:12:37.086Z,1.50
2019-05-16T10:15:07.661Z,2.00
2019-05-16T10:17:37.782Z,1.33
2019-05-16T10:20:08.191Z,1.55
2019-05-16T10:22:38.182Z,1.40
2019-05-16T10:25:08.230Z,1.82
2019-05-16T10:27:38.246Z,1.67
2019-05-16T10:30:08.889Z,1.95
2019-05-16T10:32:39.855Z,2.45
2019-05-16T10:35:10.517Z,1.52
2019-05-16T10:37:40.536Z,1.32
2019-05-16T10:40:10.892Z,1.77
2019-05-16T10:42:40.930Z,3.00
2019-05-16T10:45:10.998Z,2.27
2019-05-16T10:47:41.096Z,1.30
2019-05-16T10:50:11.115Z,1.62
2019-05-16T10:52:41.164Z,2.02
2019-05-16T10:55:11.281Z,1.55
2019-05-16T10:57:41.471Z,1.98
2019-05-16T11:00:18.292Z,1.90
2019-05-16T11:02:43.467Z,1.87
2019-05-16T11:05:28.973Z,2.50
2019-05-16T11:07:48.532Z,1.60
2019-05-16T11:10:17.642Z,2.37
2019-05-16T11:12:54.743Z,0.80
2019-05-16T11:15:19.427Z,1.62
2019-05-16T11:17:49.487Z,2.33
2019-05-16T11:20:20.848Z,2.62
2019-05-16T11:22:50.916Z,1.35
2019-05-16T11:25:28.826Z,1.32
2019-05-16T11:27:52.703Z,1.77
2019-05-16T11:30:22.784Z,1.60
2019-05-16T11:32:52.837Z,2.47
2019-05-16T11:35:22.874Z,2.30
2019-05-16T11:37:52.926Z,1.67
2019-05-16T11:40:22.959Z,1.52
2019-05-16T11:43:06.615Z,1.65
2019-05-16T11:45:27.048Z,1.60
2019-05-16T11:47:56.780Z,1.82
2019-05-16T11:50:28.046Z,2.55
2019-05-16T11:52:58.160Z,1.90
2019-05-16T11:55:33.519Z,2.37
2019-05-16T11:57:59.925Z,2.08
2019-05-16T12:00:37.107Z,1.47
2019-05-16T12:03:06.503Z,1.67
2019-05-16T12:05:37.339Z,2.45
2019-05-16T12:08:08.041Z,2.20
2019-05-16T12:10:38.142Z,2.55
2019-05-16T12:13:23.753Z,1.72
2019-05-16T12:15:39.921Z,1.60
2019-05-16T12:18:09.960Z,1.95
2019-05-16T12:20:40.012Z,2.15
2019-05-16T12:23:10.134Z,1.82
2019-05-16T12:25:40.176Z,2.42
2019-05-16T12:28:10.192Z,2.08
2019-05-16T12:30:40.650Z,1.70
2019-05-16T12:33:10.752Z,1.65
2019-05-16T12:35:40.797Z,1.82
2019-05-16T12:38:10.811Z,1.80
2019-05-16T12:40:40.857Z,1.80
2019-05-16T12:43:10.860Z,2.00
2019-05-16T12:45:40.915Z,1.82
2019-05-16T12:48:10.933Z,1.55
2019-05-16T12:50:41.003Z,1.77
2019-05-16T12:53:11.018Z,1.72
2019-05-16T12:55:41.069Z,1.27
2019-05-16T12:58:13.228Z,2.85
2019-05-16T13:00:44.035Z,1.47
2019-05-16T13:03:14.570Z,1.62
2019-05-16T13:05:44.666Z,2.02
2019-05-16T13:08:17.377Z,1.05
2019-05-16T13:10:47.509Z,1.40
2019-05-16T13:13:17.930Z,1.17
2019-05-16T13:15:48.069Z,1.27
2019-05-16T13:18:18.110Z,1.30
2019-05-16T13:20:49.170Z,1.30
2019-05-16T13:23:19.209Z,0.80
2019-05-16T13:25:49.265Z,0.80
2019-05-16T13:28:19.280Z,1.90
2019-05-16T13:30:49.418Z,1.10
2019-05-16T13:33:19.436Z,1.12
2019-05-16T13:35:49.503Z,1.05
2019-05-16T13:38:19.527Z,0.80
2019-05-16T13:40:49.574Z,0.30
2019-05-16T13:43:19.593Z,1.00
2019-05-16T13:45:49.652Z,1.42
2019-05-16T13:48:19.688Z,1.42
2019-05-16T13:50:49.749Z,1.00
2019-05-16T13:53:19.771Z,1.20
2019-05-16T13:55:49.826Z,1.30
2019-05-16T13:58:19.841Z,1.20
2019-05-16T14:00:49.886Z,1.20
2019-05-16T14:03:19.986Z,1.15
2019-05-16T14:05:50.033Z,1.02
2019-05-16T14:08:20.203Z,1.15
2019-05-16T14:10:50.255Z,1.20
2019-05-16T14:13:20.273Z,0.90
2019-05-16T14:15:50.333Z,1.20
2019-05-16T14:18:20.365Z,1.52
2019-05-16T14:20:51.561Z,1.37
2019-05-16T14:23:21.608Z,1.60
2019-05-16T14:25:51.941Z,0.70
2019-05-16T14:28:21.996Z,1.57
2019-05-16T14:30:52.106Z,1.47
2019-05-16T14:33:22.131Z,1.10
2019-05-16T14:35:52.196Z,1.32
2019-05-16T14:38:22.221Z,1.07
2019-05-16T14:40:52.271Z,1.27
2019-05-16T14:43:22.304Z,1.35
2019-05-16T14:45:52.364Z,1.17
2019-05-16T14:48:22.391Z,1.02
2019-05-16T14:50:52.449Z,0.98
2019-05-16T14:53:22.487Z,1.42
2019-05-16T14:55:52.522Z,0.88
2019-05-16T14:58:22.565Z,1.12
2019-05-16T15:00:52.607Z,0.82
2019-05-16T15:03:22.730Z,1.02
2019-05-16T15:05:55.386Z,1.47
2019-05-16T15:08:24.605Z,1.15
2019-05-16T15:10:54.633Z,1.22
2019-05-16T15:13:24.650Z,1.35
2019-05-16T15:15:56.835Z,1.65
2019-05-16T15:18:27.854Z,1.27
2019-05-16T15:20:58.160Z,1.35
2019-05-16T15:23:28.643Z,1.32
2019-05-16T15:25:58.722Z,1.05
2019-05-16T15:28:30.365Z,1.55
2019-05-16T15:31:00.512Z,0.88
2019-05-16T15:33:30.552Z,1.07
2019-05-16T15:36:00.610Z,1.32
2019-05-16T15:38:30.654Z,1.00
2019-05-16T15:41:00.691Z,0.95
2019-05-16T15:43:30.722Z,1.60
2019-05-16T15:46:01.381Z,1.07
2019-05-16T15:48:31.464Z,1.25
2019-05-16T15:51:01.486Z,0.70
2019-05-16T15:53:31.603Z,0.50
2019-05-16T15:56:01.616Z,0.82
2019-05-16T15:58:31.677Z,0.88
2019-05-16T16:01:01.714Z,1.30
2019-05-16T16:03:31.931Z,1.05
2019-05-16T16:06:01.967Z,1.10
2019-05-16T16:08:32.065Z,1.00
2019-05-16T16:11:02.089Z,0.53
2019-05-16T16:13:32.192Z,1.15
2019-05-16T16:16:02.261Z,1.00
2019-05-16T16:18:32.290Z,1.05
2019-05-16T16:21:02.349Z,0.60
2019-05-16T16:23:32.372Z,0.98
2019-05-16T16:26:02.424Z,0.68
2019-05-16T16:28:32.514Z,1.32
2019-05-16T16:31:02.673Z,0.65
2019-05-16T16:33:32.690Z,0.88
2019-05-16T16:36:02.737Z,0.93
2019-05-16T16:38:32.764Z,0.47
2019-05-16T16:41:02.820Z,0.60
2019-05-16T16:43:32.843Z,0.70
2019-05-16T16:46:08.879Z,1.00
2019-05-16T16:48:34.773Z,0.42
2019-05-16T16:51:06.579Z,0.80
2019-05-16T16:53:37.801Z,1.00
2019-05-16T16:56:08.140Z,0.80
2019-05-16T16:58:38.242Z,0.40
2019-05-16T17:01:08.340Z,0.90
2019-05-16T17:03:38.434Z,1.10
2019-05-16T17:06:08.488Z,1.30
2019-05-16T17:08:38.729Z,1.17
2019-05-16T17:11:08.855Z,0.98
2019-05-16T17:13:38.873Z,0.72
2019-05-16T17:16:22.197Z,0.47
2019-05-16T17:18:40.734Z,0.70
2019-05-16T17:21:10.869Z,0.98
2019-05-16T17:23:40.967Z,0.90
2019-05-16T17:26:11.073Z,0.70
2019-05-16T17:28:41.117Z,0.80
2019-05-16T17:31:11.210Z,0.72
2019-05-16T17:33:41.318Z,0.65
2019-05-16T17:36:11.355Z,0.60
2019-05-16T17:38:41.371Z,0.50
2019-05-16T17:41:11.503Z,1.15
2019-05-16T17:43:42.428Z,1.00
2019-05-16T17:46:12.483Z,0.70
2019-05-16T17:48:42.517Z,0.60
2019-05-16T17:51:12.588Z,0.60
2019-05-16T17:53:43.576Z,0.50
2019-05-16T17:56:13.626Z,0.85
2019-05-16T17:58:43.726Z,0.75
2019-05-16T18:01:13.777Z,0.50
2019-05-16T18:03:43.802Z,0.40
2019-05-16T18:06:13.846Z,0.53
2019-05-16T18:08:46.692Z,0.70
2019-05-16T18:11:17.739Z,0.93
2019-05-16T18:13:47.961Z,0.40
2019-05-16T18:16:17.995Z,0.50
2019-05-16T18:18:48.047Z,0.90
2019-05-16T18:21:18.098Z,0.55
2019-05-16T18:23:48.113Z,0.55
2019-05-16T18:26:18.159Z,1.15
2019-05-16T18:28:48.232Z,0.70
2019-05-16T18:31:18.294Z,1.05
2019-05-16T18:33:48.405Z,0.47
2019-05-16T18:36:18.444Z,0.65
2019-05-16T18:38:49.429Z,0.50
2019-05-16T18:41:19.481Z,0.50
2019-05-16T18:43:49.517Z,1.00
2019-05-16T18:46:20.859Z,0.55
2019-05-16T18:48:50.875Z,0.40
2019-05-16T18:51:20.906Z,0.50
2019-05-16T18:53:50.980Z,0.55
2019-05-16T18:56:21.024Z,0.82
2019-05-16T18:58:51.079Z,0.30
2019-05-16T19:01:21.193Z,0.57
2019-05-16T19:03:51.281Z,0.50
2019-05-16T19:06:21.330Z,0.40
2019-05-16T19:08:51.421Z,0.50
2019-05-16T19:11:21.462Z,0.90
2019-05-16T19:13:51.506Z,0.30
2019-05-16T19:16:21.557Z,0.60
2019-05-16T19:18:51.578Z,0.30
2019-05-16T19:21:21.606Z,0.40
2019-05-16T19:23:51.665Z,0.33
2019-05-16T19:26:21.698Z,0.30
2019-05-16T19:28:51.814Z,0.35
2019-05-16T19:31:21.949Z,0.30
2019-05-16T19:33:51.958Z,0.55
2019-05-16T19:36:22.001Z,0.50
2019-05-16T19:38:52.063Z,0.42
2019-05-16T19:41:22.086Z,0.30
2019-05-16T19:43:52.157Z,0.50
2019-05-16T19:46:23.577Z,0.70
2019-05-16T19:48:53.867Z,0.60
2019-05-16T19:51:23.889Z,0.53
2019-05-16T19:53:56.451Z,0.30
2019-05-16T19:56:26.948Z,0.70
2019-05-16T19:58:57.282Z,0.40
2019-05-16T20:01:27.535Z,0.73
2019-05-16T20:03:58.525Z,0.50
2019-05-16T20:06:28.569Z,0.50
2019-05-16T20:08:58.638Z,0.20
2019-05-16T20:11:28.673Z,0.60
2019-05-16T20:13:59.712Z,0.60
2019-05-16T20:16:29.751Z,0.50
2019-05-16T20:18:59.805Z,0.73
2019-05-16T20:21:29.861Z,0.37
2019-05-16T20:23:59.904Z,0.50
2019-05-16T20:26:29.961Z,0.60
2019-05-16T20:28:59.986Z,0.57
2019-05-16T20:31:30.041Z,0.83
2019-05-16T20:34:00.094Z,0.40
2019-05-16T20:36:30.179Z,0.40
2019-05-16T20:39:00.312Z,0.47
2019-05-16T20:41:30.443Z,0.67
2019-05-16T20:44:00.464Z,0.60
2019-05-16T20:46:30.494Z,0.50
2019-05-16T20:49:00.603Z,0.97
2019-05-16T20:51:30.615Z,0.40
2019-05-16T20:54:00.656Z,0.77
2019-05-16T20:56:30.712Z,0.80
2019-05-16T20:59:00.753Z,0.50
2019-05-16T21:01:30.823Z,0.83
2019-05-16T21:04:00.852Z,0.63
2019-05-16T21:06:30.882Z,0.33
2019-05-16T21:09:01.024Z,0.70
2019-05-16T21:11:32.827Z,0.90
2019-05-16T21:14:02.879Z,0.97
2019-05-16T21:16:32.985Z,1.53
2019-05-16T21:19:03.030Z,1.33
2019-05-16T21:21:33.099Z,1.37
2019-05-16T21:24:03.106Z,0.97
2019-05-16T21:26:33.147Z,0.50
2019-05-16T21:29:04.835Z,1.13
2019-05-16T21:31:36.848Z,0.90
2019-05-16T21:34:07.236Z,0.83
2019-05-16T21:36:37.274Z,0.90
2019-05-16T21:39:08.548Z,0.70
2019-05-16T21:41:38.716Z,0.90
2019-05-16T21:44:08.755Z,0.50
2019-05-16T21:46:38.808Z,0.73
2019-05-16T21:49:08.896Z,1.50
2019-05-16T21:51:38.929Z,1.03
2019-05-16T21:54:09.948Z,0.53
2019-05-16T21:56:39.960Z,0.60
2019-05-16T21:59:10.236Z,0.50
2019-05-16T22:01:40.270Z,0.30
2019-05-16T22:04:10.442Z,0.70
2019-05-16T22:06:40.498Z,0.80
2019-05-16T22:09:10.561Z,0.90
2019-05-16T22:11:42.236Z,0.23
2019-05-16T22:14:13.967Z,0.97
2019-05-16T22:16:46.658Z,0.90
2019-05-16T22:19:16.516Z,0.80
2019-05-16T22:21:47.633Z,0.67
2019-05-16T22:24:17.663Z,0.87
2019-05-16T22:26:47.793Z,0.60
2019-05-16T22:29:17.986Z,0.63
2019-05-16T22:31:48.040Z,0.97
2019-05-16T22:34:18.066Z,0.90
2019-05-16T22:36:49.463Z,0.60
2019-05-16T22:39:20.462Z,0.83
2019-05-16T22:41:50.508Z,1.07
2019-05-16T22:44:20.524Z,0.53
2019-05-16T22:46:50.555Z,0.73
2019-05-16T22:49:20.608Z,0.63
2019-05-16T22:51:50.636Z,0.40
2019-05-16T22:54:20.689Z,0.63
2019-05-16T22:56:50.718Z,1.50
2019-05-16T22:59:20.782Z,0.90
2019-05-16T23:01:50.900Z,0.63
2019-05-16T23:04:20.970Z,1.57
2019-05-16T23:06:51.081Z,0.70
2019-05-16T23:09:21.152Z,0.53
2019-05-16T23:11:51.324Z,0.63
2019-05-16T23:14:21.365Z,0.87
2019-05-16T23:16:51.434Z,0.50
2019-05-16T23:19:21.472Z,0.53
2019-05-16T23:21:51.530Z,0.50
2019-05-16T23:24:21.560Z,1.37
2019-05-16T23:26:52.581Z,1.10
2019-05-16T23:29:22.619Z,0.60
2019-05-16T23:31:52.698Z,0.77
2019-05-16T23:34:22.723Z,0.70
2019-05-16T23:36:52.848Z,0.30
2019-05-16T23:39:22.865Z,0.53
2019-05-16T23:41:52.913Z,0.40
2019-05-16T23:44:22.958Z,0.30
2019-05-16T23:46:52.984Z,0.30
2019-05-16T23:49:23.019Z,0.40
2019-05-16T23:51:53.056Z,0.70
2019-05-16T23:54:23.104Z,0.50
2019-05-16T23:56:54.125Z,0.20
2019-05-16T23:59:24.162Z,0.27
